sensor_id;sensor_type;location;lat;lon;timestamp;pressure;altitude;pressure_sealevel;temperature;humidity
81622;BME280;71029;50.742;7.090;2023-07-31T00:02:08;100768.53;;;20.98;67.54
81622;BME280;71029;50.742;7.090;2023-07-31T00:04:34;100772.91;;;20.99;68.11
81622;BME280;71029;50.742;7.090;2023-07-31T00:07:01;100772.91;;;20.99;68.03
81622;BME280;71029;50.742;7.090;2023-07-31T00:09:30;100772.06;;;20.98;67.76
81622;BME280;71029;50.742;7.090;2023-07-31T00:11:56;100766.66;;;20.98;67.86
81622;BME280;71029;50.742;7.090;2023-07-31T00:14:23;100766.44;;;21.00;68.04
81622;BME280;71029;50.742;7.090;2023-07-31T00:16:50;100765.00;;;20.97;67.84
81622;BME280;71029;50.742;7.090;2023-07-31T00:19:18;100769.59;;;20.97;67.53
81622;BME280;71029;50.742;7.090;2023-07-31T00:21:44;100766.88;;;20.97;67.39
81622;BME280;71029;50.742;7.090;2023-07-31T00:24:11;100773.13;;;20.97;67.76
81622;BME280;71029;50.742;7.090;2023-07-31T00:26:37;100767.94;;;20.95;67.97
81622;BME280;71029;50.742;7.090;2023-07-31T00:29:04;100773.34;;;20.95;67.63
81622;BME280;71029;50.742;7.090;2023-07-31T00:31:31;100770.66;;;20.95;67.84
81622;BME280;71029;50.742;7.090;2023-07-31T00:33:57;100772.31;;;20.97;67.46
81622;BME280;71029;50.742;7.090;2023-07-31T00:36:24;100770.66;;;20.95;67.92
81622;BME280;71029;50.742;7.090;2023-07-31T00:38:50;100774.19;;;20.96;68.11
81622;BME280;71029;50.742;7.090;2023-07-31T00:41:17;100766.06;;;20.96;67.91
81622;BME280;71029;50.742;7.090;2023-07-31T00:43:44;100781.47;;;20.95;67.48
81622;BME280;71029;50.742;7.090;2023-07-31T00:46:11;100780.66;;;20.95;67.42
81622;BME280;71029;50.742;7.090;2023-07-31T00:48:38;100777.94;;;20.95;67.62
81622;BME280;71029;50.742;7.090;2023-07-31T00:51:07;100777.13;;;20.94;67.95
81622;BME280;71029;50.742;7.090;2023-07-31T00:53:34;100781.72;;;20.94;67.92
81622;BME280;71029;50.742;7.090;2023-07-31T00:56:01;100779.00;;;20.94;68.02
81622;BME280;71029;50.742;7.090;2023-07-31T00:58:27;100781.72;;;20.94;67.82
81622;BME280;71029;50.742;7.090;2023-07-31T01:00:54;100780.88;;;20.93;68.05
81622;BME280;71029;50.742;7.090;2023-07-31T01:03:21;100773.78;;;20.92;67.89
81622;BME280;71029;50.742;7.090;2023-07-31T01:08:54;100776.50;;;20.92;67.83
81622;BME280;71029;50.742;7.090;2023-07-31T01:11:30;100773.78;;;20.92;67.46
81622;BME280;71029;50.742;7.090;2023-07-31T01:13:57;100772.97;;;20.92;68.21
81622;BME280;71029;50.742;7.090;2023-07-31T01:16:25;100771.06;;;20.92;67.96
81622;BME280;71029;50.742;7.090;2023-07-31T01:18:53;100762.94;;;20.92;67.67
81622;BME280;71029;50.742;7.090;2023-07-31T01:24:28;100758.59;;;20.91;67.69
81622;BME280;71029;50.742;7.090;2023-07-31T01:27:17;100761.53;;;20.90;67.64
81622;BME280;71029;50.742;7.090;2023-07-31T01:30:00;100759.66;;;20.90;67.76
81622;BME280;71029;50.742;7.090;2023-07-31T01:32:28;100767.78;;;20.90;67.54
81622;BME280;71029;50.742;7.090;2023-07-31T01:34:58;100773.19;;;20.90;67.57
81622;BME280;71029;50.742;7.090;2023-07-31T01:37:29;100762.59;;;20.89;67.23
81622;BME280;71029;50.742;7.090;2023-07-31T01:39:56;100755.28;;;20.89;67.26
81622;BME280;71029;50.742;7.090;2023-07-31T01:42:23;100749.03;;;20.89;67.97
81622;BME280;71029;50.742;7.090;2023-07-31T01:44:50;100752.56;;;20.89;67.24
81622;BME280;71029;50.742;7.090;2023-07-31T01:47:16;100749.03;;;20.89;67.41
81622;BME280;71029;50.742;7.090;2023-07-31T01:49:43;100746.56;;;20.87;67.70
81622;BME280;71029;50.742;7.090;2023-07-31T01:52:10;100750.94;;;20.88;67.56
81622;BME280;71029;50.742;7.090;2023-07-31T01:54:36;100757.41;;;20.87;67.77
81622;BME280;71029;50.742;7.090;2023-07-31T01:57:03;100750.31;;;20.86;67.55
81622;BME280;71029;50.742;7.090;2023-07-31T01:59:30;100746.56;;;20.87;67.58
81622;BME280;71029;50.742;7.090;2023-07-31T02:01:56;100744.91;;;20.86;67.34
81622;BME280;71029;50.742;7.090;2023-07-31T02:04:22;100742.22;;;20.86;67.66
81622;BME280;71029;50.742;7.090;2023-07-31T02:06:49;100739.50;;;20.86;67.91
81622;BME280;71029;50.742;7.090;2023-07-31T02:09:16;100735.13;;;20.85;67.77
81622;BME280;71029;50.742;7.090;2023-07-31T02:11:42;100734.09;;;20.86;67.46
81622;BME280;71029;50.742;7.090;2023-07-31T02:14:08;100727.03;;;20.85;67.60
81622;BME280;71029;50.742;7.090;2023-07-31T02:16:35;100725.34;;;20.84;67.88
81622;BME280;71029;50.742;7.090;2023-07-31T02:19:02;100723.44;;;20.85;67.77
81622;BME280;71029;50.742;7.090;2023-07-31T02:21:28;100707.44;;;20.83;67.56
81622;BME280;71029;50.742;7.090;2023-07-31T02:23:55;100722.63;;;20.84;67.77
81622;BME280;71029;50.742;7.090;2023-07-31T02:26:21;100713.69;;;20.84;67.57
81622;BME280;71029;50.742;7.090;2023-07-31T02:28:48;100712.84;;;20.83;67.44
81622;BME280;71029;50.742;7.090;2023-07-31T02:31:14;100725.34;;;20.84;67.81
81622;BME280;71029;50.742;7.090;2023-07-31T02:33:41;100704.72;;;20.83;67.70
81622;BME280;71029;50.742;7.090;2023-07-31T02:36:08;100712.84;;;20.83;67.49
81622;BME280;71029;50.742;7.090;2023-07-31T02:38:34;100704.72;;;20.83;67.40
81622;BME280;71029;50.742;7.090;2023-07-31T02:41:01;100702.03;;;20.83;67.70
81622;BME280;71029;50.742;7.090;2023-07-31T02:43:27;100700.38;;;20.82;67.72
81622;BME280;71029;50.742;7.090;2023-07-31T02:45:53;100695.78;;;20.83;67.72
81622;BME280;71029;50.742;7.090;2023-07-31T02:48:20;100699.53;;;20.82;67.74
81622;BME280;71029;50.742;7.090;2023-07-31T02:50:47;100696.00;;;20.81;67.72
81622;BME280;71029;50.742;7.090;2023-07-31T02:53:14;100697.06;;;20.80;67.82
81622;BME280;71029;50.742;7.090;2023-07-31T02:55:41;100693.53;;;20.80;67.70
81622;BME280;71029;50.742;7.090;2023-07-31T02:58:07;100698.72;;;20.81;67.83
81622;BME280;71029;50.742;7.090;2023-07-31T03:00:34;100691.66;;;20.80;67.48
81622;BME280;71029;50.742;7.090;2023-07-31T03:03:00;100697.06;;;20.80;67.62
81622;BME280;71029;50.742;7.090;2023-07-31T03:05:27;100688.34;;;20.78;67.56
81622;BME280;71029;50.742;7.090;2023-07-31T03:07:54;100689.38;;;20.77;67.53
81622;BME280;71029;50.742;7.090;2023-07-31T03:10:20;100695.19;;;20.81;67.52
81622;BME280;71029;50.742;7.090;2023-07-31T03:12:47;100687.06;;;20.81;67.61
81622;BME280;71029;50.742;7.090;2023-07-31T03:15:14;100686.25;;;20.80;67.40
81622;BME280;71029;50.742;7.090;2023-07-31T03:17:41;100679.16;;;20.79;67.60
81622;BME280;71029;50.742;7.090;2023-07-31T03:20:07;100679.16;;;20.79;67.84
81622;BME280;71029;50.742;7.090;2023-07-31T03:22:35;100676.47;;;20.79;67.80
81622;BME280;71029;50.742;7.090;2023-07-31T03:25:02;100673.75;;;20.79;68.00
81622;BME280;71029;50.742;7.090;2023-07-31T03:27:29;100676.47;;;20.79;67.44
81622;BME280;71029;50.742;7.090;2023-07-31T03:29:55;100670.22;;;20.79;67.94
81622;BME280;71029;50.742;7.090;2023-07-31T03:32:22;100667.53;;;20.79;67.66
81622;BME280;71029;50.742;7.090;2023-07-31T03:34:49;100664.00;;;20.78;67.63
81622;BME280;71029;50.742;7.090;2023-07-31T03:37:16;100664.81;;;20.79;67.45
81622;BME280;71029;50.742;7.090;2023-07-31T03:39:42;100662.31;;;20.77;67.74
81622;BME280;71029;50.742;7.090;2023-07-31T03:42:09;100647.13;;;20.76;67.92
81622;BME280;71029;50.742;7.090;2023-07-31T03:44:35;100651.47;;;20.77;67.73
81622;BME280;71029;50.742;7.090;2023-07-31T03:47:02;100643.34;;;20.77;67.32
81622;BME280;71029;50.742;7.090;2023-07-31T03:49:29;100644.41;;;20.76;67.50
81622;BME280;71029;50.742;7.090;2023-07-31T03:51:56;100639.81;;;20.77;67.69
81622;BME280;71029;50.742;7.090;2023-07-31T03:54:22;100641.69;;;20.76;67.22
81622;BME280;71029;50.742;7.090;2023-07-31T03:56:49;100642.53;;;20.77;67.46
81622;BME280;71029;50.742;7.090;2023-07-31T03:59:15;100639.81;;;20.77;67.41
81622;BME280;71029;50.742;7.090;2023-07-31T04:01:42;100640.06;;;20.75;67.66
81622;BME280;71029;50.742;7.090;2023-07-31T04:04:09;100641.69;;;20.76;67.32
81622;BME280;71029;50.742;7.090;2023-07-31T04:06:35;100636.28;;;20.76;67.31
81622;BME280;71029;50.742;7.090;2023-07-31T04:09:02;100631.69;;;20.77;67.39
81622;BME280;71029;50.742;7.090;2023-07-31T04:11:29;100634.41;;;20.77;67.17
81622;BME280;71029;50.742;7.090;2023-07-31T04:13:55;100631.69;;;20.77;67.71
81622;BME280;71029;50.742;7.090;2023-07-31T04:16:22;100630.88;;;20.76;67.64
81622;BME280;71029;50.742;7.090;2023-07-31T04:18:48;100626.28;;;20.77;67.70
81622;BME280;71029;50.742;7.090;2023-07-31T04:21:15;100634.63;;;20.75;67.61
81622;BME280;71029;50.742;7.090;2023-07-31T04:23:42;100637.13;;;20.77;67.39
81622;BME280;71029;50.742;7.090;2023-07-31T04:26:08;100631.69;;;20.77;67.92
81622;BME280;71029;50.742;7.090;2023-07-31T04:28:35;100633.59;;;20.76;67.21
81622;BME280;71029;50.742;7.090;2023-07-31T04:31:01;100631.94;;;20.75;67.43
81622;BME280;71029;50.742;7.090;2023-07-31T04:33:28;100632.75;;;20.76;67.32
81622;BME280;71029;50.742;7.090;2023-07-31T04:35:54;100635.47;;;20.76;67.31
81622;BME280;71029;50.742;7.090;2023-07-31T04:38:21;100640.06;;;20.75;66.96
81622;BME280;71029;50.742;7.090;2023-07-31T04:40:48;100633.00;;;20.74;67.58
81622;BME280;71029;50.742;7.090;2023-07-31T04:43:14;100635.69;;;20.74;67.33
81622;BME280;71029;50.742;7.090;2023-07-31T04:45:47;100638.41;;;20.74;67.49
81622;BME280;71029;50.742;7.090;2023-07-31T04:48:15;100625.94;;;20.73;67.12
81622;BME280;71029;50.742;7.090;2023-07-31T04:50:41;100641.69;;;20.76;67.15
81622;BME280;71029;50.742;7.090;2023-07-31T04:53:08;100633.81;;;20.75;67.12
81622;BME280;71029;50.742;7.090;2023-07-31T04:55:34;100631.94;;;20.75;67.05
81622;BME280;71029;50.742;7.090;2023-07-31T04:58:01;100627.56;;;20.74;67.02
81622;BME280;71029;50.742;7.090;2023-07-31T05:00:27;100631.94;;;20.75;67.14
81622;BME280;71029;50.742;7.090;2023-07-31T05:02:54;100617.56;;;20.75;67.15
81622;BME280;71029;50.742;7.090;2023-07-31T05:05:20;100611.94;;;20.76;67.31
81622;BME280;71029;50.742;7.090;2023-07-31T05:07:47;100610.03;;;20.77;66.69
81622;BME280;71029;50.742;7.090;2023-07-31T05:10:14;100610.66;;;20.79;67.02
81622;BME280;71029;50.742;7.090;2023-07-31T05:12:40;100608.78;;;20.79;66.50
81622;BME280;71029;50.742;7.090;2023-07-31T05:15:07;100604.78;;;20.82;66.78
81622;BME280;71029;50.742;7.090;2023-07-31T05:17:33;100602.09;;;20.82;66.64
81622;BME280;71029;50.742;7.090;2023-07-31T05:20:00;100605.63;;;20.82;66.41
81622;BME280;71029;50.742;7.090;2023-07-31T05:22:27;100603.97;;;20.81;66.30
81622;BME280;71029;50.742;7.090;2023-07-31T05:24:53;100596.69;;;20.82;66.43
81622;BME280;71029;50.742;7.090;2023-07-31T05:27:20;100588.78;;;20.80;66.72
81622;BME280;71029;50.742;7.090;2023-07-31T05:29:47;100589.59;;;20.81;66.70
81622;BME280;71029;50.742;7.090;2023-07-31T05:32:13;100598.56;;;20.81;66.70
81622;BME280;71029;50.742;7.090;2023-07-31T05:34:40;100589.59;;;20.81;66.33
81622;BME280;71029;50.742;7.090;2023-07-31T05:37:06;100586.06;;;20.80;66.37
81622;BME280;71029;50.742;7.090;2023-07-31T05:39:33;100588.78;;;20.80;66.75
81622;BME280;71029;50.742;7.090;2023-07-31T05:41:59;100591.50;;;20.80;66.23
81622;BME280;71029;50.742;7.090;2023-07-31T05:44:26;100579.00;;;20.79;66.86
81622;BME280;71029;50.742;7.090;2023-07-31T05:46:52;100575.25;;;20.80;66.60
81622;BME280;71029;50.742;7.090;2023-07-31T05:49:19;100570.91;;;20.79;66.36
81622;BME280;71029;50.742;7.090;2023-07-31T05:51:45;100559.25;;;20.79;66.50
81622;BME280;71029;50.742;7.090;2023-07-31T05:54:12;100570.44;;;20.82;66.64
81622;BME280;71029;50.742;7.090;2023-07-31T05:56:38;100563.38;;;20.81;66.21
81622;BME280;71029;50.742;7.090;2023-07-31T05:59:05;100562.53;;;20.81;66.39
81622;BME280;71029;50.742;7.090;2023-07-31T06:01:32;100572.53;;;20.80;66.33
81622;BME280;71029;50.742;7.090;2023-07-31T06:03:58;100563.84;;;20.78;66.12
81622;BME280;71029;50.742;7.090;2023-07-31T06:06:25;100557.59;;;20.78;66.47
81622;BME280;71029;50.742;7.090;2023-07-31T06:08:51;100557.78;;;20.76;65.82
81622;BME280;71029;50.742;7.090;2023-07-31T06:11:19;100555.31;;;20.75;65.44
81622;BME280;71029;50.742;7.090;2023-07-31T06:13:46;100551.78;;;20.74;65.47
81622;BME280;71029;50.742;7.090;2023-07-31T06:16:14;100555.56;;;20.73;65.03
81622;BME280;71029;50.742;7.090;2023-07-31T06:18:41;100559.31;;;20.72;65.41
81622;BME280;71029;50.742;7.090;2023-07-31T06:21:09;100560.38;;;20.71;66.04
81622;BME280;71029;50.742;7.090;2023-07-31T06:23:35;100559.75;;;20.69;65.43
81622;BME280;71029;50.742;7.090;2023-07-31T06:26:02;100562.44;;;20.69;65.90
81622;BME280;71029;50.742;7.090;2023-07-31T06:28:29;100565.16;;;20.69;66.06
81622;BME280;71029;50.742;7.090;2023-07-31T06:30:59;100558.09;;;20.68;66.59
81622;BME280;71029;50.742;7.090;2023-07-31T06:33:27;100558.09;;;20.68;66.61
81622;BME280;71029;50.742;7.090;2023-07-31T06:35:54;100552.91;;;20.66;66.51
81622;BME280;71029;50.742;7.090;2023-07-31T06:38:25;100554.78;;;20.66;66.41
81622;BME280;71029;50.742;7.090;2023-07-31T06:40:52;100553.16;;;20.65;66.39
81622;BME280;71029;50.742;7.090;2023-07-31T06:43:19;100548.19;;;20.62;66.66
81622;BME280;71029;50.742;7.090;2023-07-31T06:45:45;100546.50;;;20.61;66.53
81622;BME280;71029;50.742;7.090;2023-07-31T06:48:12;100539.91;;;20.57;67.07
81622;BME280;71029;50.742;7.090;2023-07-31T06:50:39;100552.38;;;20.58;66.66
81622;BME280;71029;50.742;7.090;2023-07-31T06:53:05;100541.78;;;20.56;66.93
81622;BME280;71029;50.742;7.090;2023-07-31T06:55:33;100546.63;;;20.54;67.39
81622;BME280;71029;50.742;7.090;2023-07-31T06:57:59;100549.91;;;20.56;67.11
81622;BME280;71029;50.742;7.090;2023-07-31T07:00:26;100549.09;;;20.56;67.21
81622;BME280;71029;50.742;7.090;2023-07-31T07:02:53;100545.34;;;20.57;66.86
81622;BME280;71029;50.742;7.090;2023-07-31T07:05:19;100535.09;;;20.59;67.35
81622;BME280;71029;50.742;7.090;2023-07-31T07:07:46;100535.94;;;20.59;67.03
81622;BME280;71029;50.742;7.090;2023-07-31T07:10:12;100525.09;;;20.59;67.30
81622;BME280;71029;50.742;7.090;2023-07-31T07:12:39;100523.00;;;20.61;67.20
81622;BME280;71029;50.742;7.090;2023-07-31T07:15:06;100530.66;;;20.64;66.67
81622;BME280;71029;50.742;7.090;2023-07-31T07:17:32;100526.44;;;20.68;66.97
81622;BME280;71029;50.742;7.090;2023-07-31T07:20:00;100518.13;;;20.70;66.77
81622;BME280;71029;50.742;7.090;2023-07-31T07:22:27;100511.66;;;20.71;67.23
81622;BME280;71029;50.742;7.090;2023-07-31T07:24:54;100514.78;;;20.68;67.27
81622;BME280;71029;50.742;7.090;2023-07-31T07:27:21;100523.97;;;20.67;67.31
81622;BME280;71029;50.742;7.090;2023-07-31T07:29:50;100523.16;;;20.66;67.24
81622;BME280;71029;50.742;7.090;2023-07-31T07:32:16;100522.09;;;20.67;67.20
81622;BME280;71029;50.742;7.090;2023-07-31T07:34:44;100524.78;;;20.67;66.92
81622;BME280;71029;50.742;7.090;2023-07-31T07:37:11;100530.22;;;20.67;67.81
81622;BME280;71029;50.742;7.090;2023-07-31T07:39:38;100527.72;;;20.66;67.65
81622;BME280;71029;50.742;7.090;2023-07-31T07:42:05;100534.19;;;20.65;67.68
81622;BME280;71029;50.742;7.090;2023-07-31T07:44:31;100525.25;;;20.64;67.72
81622;BME280;71029;50.742;7.090;2023-07-31T07:46:58;100537.72;;;20.65;67.44
81622;BME280;71029;50.742;7.090;2023-07-31T07:49:25;100526.09;;;20.65;67.51
81622;BME280;71029;50.742;7.090;2023-07-31T07:51:51;100538.56;;;20.66;67.63
81622;BME280;71029;50.742;7.090;2023-07-31T07:54:18;100534.19;;;20.65;67.70
81622;BME280;71029;50.742;7.090;2023-07-31T07:56:45;100536.91;;;20.65;67.19
81622;BME280;71029;50.742;7.090;2023-07-31T07:59:11;100529.84;;;20.64;67.72
81622;BME280;71029;50.742;7.090;2023-07-31T08:01:38;100531.97;;;20.62;67.79
81622;BME280;71029;50.742;7.090;2023-07-31T08:04:05;100527.38;;;20.62;67.79
81622;BME280;71029;50.742;7.090;2023-07-31T08:06:31;100525.91;;;20.60;67.87
81622;BME280;71029;50.742;7.090;2023-07-31T08:08:59;100535.69;;;20.61;67.79
81622;BME280;71029;50.742;7.090;2023-07-31T08:11:25;100538.41;;;20.61;67.58
81622;BME280;71029;50.742;7.090;2023-07-31T08:13:52;100528.63;;;20.60;68.08
81622;BME280;71029;50.742;7.090;2023-07-31T08:16:18;100528.63;;;20.60;68.01
81622;BME280;71029;50.742;7.090;2023-07-31T08:18:45;100523.22;;;20.60;68.04
81622;BME280;71029;50.742;7.090;2023-07-31T08:21:11;100523.22;;;20.60;68.01
81622;BME280;71029;50.742;7.090;2023-07-31T08:23:38;100521.56;;;20.59;68.12
81622;BME280;71029;50.742;7.090;2023-07-31T08:26:04;100528.63;;;20.60;68.11
81622;BME280;71029;50.742;7.090;2023-07-31T08:28:30;100521.56;;;20.59;68.32
81622;BME280;71029;50.742;7.090;2023-07-31T08:30:57;100521.56;;;20.59;67.99
81622;BME280;71029;50.742;7.090;2023-07-31T08:33:23;100518.88;;;20.59;68.47
81622;BME280;71029;50.742;7.090;2023-07-31T08:35:50;100509.31;;;20.56;68.55
81622;BME280;71029;50.742;7.090;2023-07-31T08:38:16;100501.44;;;20.55;68.33
81622;BME280;71029;50.742;7.090;2023-07-31T08:40:43;100498.75;;;20.55;68.09
81622;BME280;71029;50.742;7.090;2023-07-31T08:43:09;100494.97;;;20.56;68.42
81622;BME280;71029;50.742;7.090;2023-07-31T08:45:36;100478.16;;;20.54;68.57
81622;BME280;71029;50.742;7.090;2023-07-31T08:48:03;100483.56;;;20.54;68.06
81622;BME280;71029;50.742;7.090;2023-07-31T08:50:29;100484.59;;;20.53;68.38
81622;BME280;71029;50.742;7.090;2023-07-31T08:52:56;100484.59;;;20.53;67.85
81622;BME280;71029;50.742;7.090;2023-07-31T08:55:24;100475.06;;;20.50;68.12
81622;BME280;71029;50.742;7.090;2023-07-31T08:57:51;100480.22;;;20.52;68.74
81622;BME280;71029;50.742;7.090;2023-07-31T09:00:19;100482.94;;;20.52;68.36
81622;BME280;71029;50.742;7.090;2023-07-31T09:02:56;100476.69;;;20.51;68.46
81622;BME280;71029;50.742;7.090;2023-07-31T09:05:26;100480.47;;;20.50;68.95
81622;BME280;71029;50.742;7.090;2023-07-31T09:07:55;100485.03;;;20.50;68.21
81622;BME280;71029;50.742;7.090;2023-07-31T09:10:21;100495.88;;;20.50;68.99
81622;BME280;71029;50.742;7.090;2023-07-31T09:12:49;100491.50;;;20.49;68.64
81622;BME280;71029;50.742;7.090;2023-07-31T09:15:17;100491.50;;;20.49;69.11
81622;BME280;71029;50.742;7.090;2023-07-31T09:18:02;100481.53;;;20.49;68.69
81622;BME280;71029;50.742;7.090;2023-07-31T09:20:29;100486.09;;;20.49;69.22
81622;BME280;71029;50.742;7.090;2023-07-31T09:22:55;100497.75;;;20.49;68.86
81622;BME280;71029;50.742;7.090;2023-07-31T09:25:24;100492.56;;;20.48;68.96
81622;BME280;71029;50.742;7.090;2023-07-31T09:27:54;100495.03;;;20.49;68.68
81622;BME280;71029;50.742;7.090;2023-07-31T09:30:21;100496.94;;;20.49;69.21
81622;BME280;71029;50.742;7.090;2023-07-31T09:32:49;100489.88;;;20.48;69.31
81622;BME280;71029;50.742;7.090;2023-07-31T09:35:27;100485.28;;;20.48;69.63
81622;BME280;71029;50.742;7.090;2023-07-31T09:37:58;100478.81;;;20.49;69.00
81622;BME280;71029;50.742;7.090;2023-07-31T09:40:44;100471.53;;;20.50;69.31
81622;BME280;71029;50.742;7.090;2023-07-31T09:43:12;100473.41;;;20.49;69.49
81622;BME280;71029;50.742;7.090;2023-07-31T09:45:41;100461.53;;;20.50;69.38
81622;BME280;71029;50.742;7.090;2023-07-31T09:48:12;100462.56;;;20.49;70.09
81622;BME280;71029;50.742;7.090;2023-07-31T09:50:42;100459.06;;;20.49;69.57
81622;BME280;71029;50.742;7.090;2023-07-31T09:53:09;100452.59;;;20.50;69.58
81622;BME280;71029;50.742;7.090;2023-07-31T09:55:36;100448.00;;;20.50;69.49
81622;BME280;71029;50.742;7.090;2023-07-31T09:58:05;100442.59;;;20.50;69.27
81622;BME280;71029;50.742;7.090;2023-07-31T10:00:32;100444.22;;;20.51;69.63
81622;BME280;71029;50.742;7.090;2023-07-31T10:03:00;100438.59;;;20.53;69.26
81622;BME280;71029;50.742;7.090;2023-07-31T10:05:36;100431.09;;;20.55;68.69
81622;BME280;71029;50.742;7.090;2023-07-31T10:08:06;100423.56;;;20.57;68.45
81622;BME280;71029;50.742;7.090;2023-07-31T10:10:35;100426.84;;;20.59;68.40
81622;BME280;71029;50.742;7.090;2023-07-31T10:13:03;100434.53;;;20.62;68.60
81622;BME280;71029;50.742;7.090;2023-07-31T10:15:31;100430.78;;;20.63;68.24
81622;BME280;71029;50.742;7.090;2023-07-31T10:17:59;100428.66;;;20.65;68.54
81622;BME280;71029;50.742;7.090;2023-07-31T10:20:26;100421.13;;;20.67;68.64
81622;BME280;71029;50.742;7.090;2023-07-31T10:22:54;100428.19;;;20.68;68.11
81622;BME280;71029;50.742;7.090;2023-07-31T10:25:22;100423.41;;;20.70;67.94
81622;BME280;71029;50.742;7.090;2023-07-31T10:27:49;100426.69;;;20.72;67.43
81622;BME280;71029;50.742;7.090;2023-07-31T10:30:17;100415.63;;;20.74;67.29
81622;BME280;71029;50.742;7.090;2023-07-31T10:32:46;100418.09;;;20.75;67.19
81622;BME280;71029;50.742;7.090;2023-07-31T10:35:17;100407.84;;;20.77;67.56
81622;BME280;71029;50.742;7.090;2023-07-31T10:37:44;100400.59;;;20.78;67.14
81622;BME280;71029;50.742;7.090;2023-07-31T10:40:18;100397.66;;;20.79;67.34
81622;BME280;71029;50.742;7.090;2023-07-31T10:42:54;100394.47;;;20.82;67.08
81622;BME280;71029;50.742;7.090;2023-07-31T10:48:02;100406.50;;;20.86;66.38
81622;BME280;71029;50.742;7.090;2023-07-31T10:50:30;100402.97;;;20.86;66.86
81622;BME280;71029;50.742;7.090;2023-07-31T10:53:00;100396.72;;;20.85;66.75
81622;BME280;71029;50.742;7.090;2023-07-31T10:55:31;100402.97;;;20.86;66.35
81622;BME280;71029;50.742;7.090;2023-07-31T10:58:06;100401.53;;;20.83;66.83
81622;BME280;71029;50.742;7.090;2023-07-31T11:00:33;100411.28;;;20.84;66.45
81622;BME280;71029;50.742;7.090;2023-07-31T11:03:04;100407.31;;;20.87;66.29
81622;BME280;71029;50.742;7.090;2023-07-31T11:06:02;100405.44;;;20.87;66.48
81622;BME280;71029;50.742;7.090;2023-07-31T11:08:33;100408.16;;;20.87;66.46
81622;BME280;71029;50.742;7.090;2023-07-31T11:15:59;100412.75;;;20.87;66.01
81622;BME280;71029;50.742;7.090;2023-07-31T11:18:26;100415.22;;;20.88;66.32
81622;BME280;71029;50.742;7.090;2023-07-31T11:20:53;100408.16;;;20.87;65.81
81622;BME280;71029;50.742;7.090;2023-07-31T11:23:21;100406.25;;;20.88;66.22
81622;BME280;71029;50.742;7.090;2023-07-31T11:25:49;100407.31;;;20.87;65.84
81622;BME280;71029;50.742;7.090;2023-07-31T11:28:17;100424.63;;;20.86;65.89
81622;BME280;71029;50.742;7.090;2023-07-31T11:30:44;100421.69;;;20.87;65.57
81622;BME280;71029;50.742;7.090;2023-07-31T11:33:13;100432.50;;;20.87;66.16
81622;BME280;71029;50.742;7.090;2023-07-31T11:35:47;100442.06;;;20.90;65.74
81622;BME280;71029;50.742;7.090;2023-07-31T11:38:28;100447.47;;;20.90;66.05
81622;BME280;71029;50.742;7.090;2023-07-31T11:40:57;100441.47;;;20.88;65.94
81622;BME280;71029;50.742;7.090;2023-07-31T11:43:24;100421.69;;;20.87;65.59
81622;BME280;71029;50.742;7.090;2023-07-31T11:45:52;100420.63;;;20.88;65.59
81622;BME280;71029;50.742;7.090;2023-07-31T11:48:27;100407.91;;;20.89;65.59
81622;BME280;71029;50.742;7.090;2023-07-31T11:50:58;100398.72;;;20.90;66.05
81622;BME280;71029;50.742;7.090;2023-07-31T11:55:58;100386.84;;;20.91;65.90
81622;BME280;71029;50.742;7.090;2023-07-31T11:58:26;100381.19;;;20.92;65.97
81622;BME280;71029;50.742;7.090;2023-07-31T12:00:53;100383.69;;;20.94;66.25
81622;BME280;71029;50.742;7.090;2023-07-31T12:03:20;100378.28;;;20.94;66.42
81622;BME280;71029;50.742;7.090;2023-07-31T12:05:49;100381.56;;;20.96;66.03
81622;BME280;71029;50.742;7.090;2023-07-31T12:08:16;100362.38;;;20.98;66.57
81622;BME280;71029;50.742;7.090;2023-07-31T12:10:42;100368.38;;;21.00;66.36
81622;BME280;71029;50.742;7.090;2023-07-31T12:13:12;100367.31;;;21.01;66.17
81622;BME280;71029;50.742;7.090;2023-07-31T12:15:46;100361.44;;;21.04;66.00
81622;BME280;71029;50.742;7.090;2023-07-31T12:18:14;100371.22;;;21.05;65.81
81622;BME280;71029;50.742;7.090;2023-07-31T12:20:46;100365.56;;;21.06;65.63
81622;BME280;71029;50.742;7.090;2023-07-31T12:23:20;100371.81;;;21.07;65.96
81622;BME280;71029;50.742;7.090;2023-07-31T12:26:11;100370.75;;;21.08;65.54
81622;BME280;71029;50.742;7.090;2023-07-31T12:28:47;100365.31;;;21.08;65.74
81622;BME280;71029;50.742;7.090;2023-07-31T12:31:18;100371.81;;;21.07;65.70
81622;BME280;71029;50.742;7.090;2023-07-31T12:33:46;100375.09;;;21.09;65.84
81622;BME280;71029;50.742;7.090;2023-07-31T12:36:15;100376.78;;;21.10;65.97
81622;BME280;71029;50.742;7.090;2023-07-31T12:38:42;100373.44;;;21.08;65.43
81622;BME280;71029;50.742;7.090;2023-07-31T12:41:08;100371.81;;;21.07;65.42
81622;BME280;71029;50.742;7.090;2023-07-31T12:43:36;100369.09;;;21.07;65.95
81622;BME280;71029;50.742;7.090;2023-07-31T12:46:04;100366.38;;;21.07;65.46
81622;BME280;71029;50.742;7.090;2023-07-31T12:48:31;100360.97;;;21.07;65.77
81622;BME280;71029;50.742;7.090;2023-07-31T12:50:58;100359.31;;;21.06;65.89
81622;BME280;71029;50.742;7.090;2023-07-31T12:53:24;100363.09;;;21.05;65.61
81622;BME280;71029;50.742;7.090;2023-07-31T12:55:51;100363.34;;;21.03;65.69
81622;BME280;71029;50.742;7.090;2023-07-31T12:58:17;100361.44;;;21.04;65.32
81622;BME280;71029;50.742;7.090;2023-07-31T13:00:44;100357.09;;;21.03;65.86
81622;BME280;71029;50.742;7.090;2023-07-31T13:03:10;100344.00;;;21.00;65.79
81622;BME280;71029;50.742;7.090;2023-07-31T13:05:37;100351.69;;;21.03;65.54
81622;BME280;71029;50.742;7.090;2023-07-31T13:08:03;100354.41;;;21.03;65.52
81622;BME280;71029;50.742;7.090;2023-07-31T13:10:30;100345.44;;;21.02;65.44